sensor_id;sensor_type;location;lat;lon;timestamp;temperature;humidity
14154;DHT22;7157;53.144;7.570;2023-04-01T00:04:19;11.30;107.70
14154;DHT22;7157;53.144;7.570;2023-04-01T00:14:22;11.31;107.82
14154;DHT22;7157;53.144;7.570;2023-04-01T00:24:26;11.32;107.99
14154;DHT22;7157;53.144;7.570;2023-04-01T00:34:29;11.32;107.97
14154;DHT22;7157;53.144;7.570;2023-04-01T00:44:34;11.32;107.78
14154;DHT22;7157;53.144;7.570;2023-04-01T00:54:37;11.36;108.05
14154;DHT22;7157;53.144;7.570;2023-04-01T01:04:42;11.39;107.61
14154;DHT22;7157;53.144;7.570;2023-04-01T01:14:55;11.29;107.86
14154;DHT22;7157;53.144;7.570;2023-04-01T01:25:19;11.28;107.91
14154;DHT22;7157;53.144;7.570;2023-04-01T01:35:31;11.28;108.05
14154;DHT22;7157;53.144;7.570;2023-04-01T01:45:37;11.23;108.13
14154;DHT22;7157;53.144;7.570;2023-04-01T01:55:44;11.23;107.98
14154;DHT22;7157;53.144;7.570;2023-04-01T02:05:48;11.28;107.91
14154;DHT22;7157;53.144;7.570;2023-04-01T02:15:58;11.20;108.09
14154;DHT22;7157;53.144;7.570;2023-04-01T02:26:03;11.20;108.18
14154;DHT22;7157;53.144;7.570;2023-04-01T02:36:12;11.18;108.02
14154;DHT22;7157;53.144;7.570;2023-04-01T02:46:16;11.18;108.03
14154;DHT22;7157;53.144;7.570;2023-04-01T02:56:20;11.19;107.98
14154;DHT22;7157;53.144;7.570;2023-04-01T03:06:22;11.19;108.03
14154;DHT22;7157;53.144;7.570;2023-04-01T03:16:27;11.25;108.07
14154;DHT22;7157;53.144;7.570;2023-04-01T03:26:29;11.26;107.82
14154;DHT22;7157;53.144;7.570;2023-04-01T03:36:33;11.18;107.94
14154;DHT22;7157;53.144;7.570;2023-04-01T03:46:36;11.24;108.01
14154;DHT22;7157;53.144;7.570;2023-04-01T03:56:40;11.30;107.87
14154;DHT22;7157;53.144;7.570;2023-04-01T04:06:43;11.30;107.88
14154;DHT22;7157;53.144;7.570;2023-04-01T04:16:47;11.19;107.85
14154;DHT22;7157;53.144;7.570;2023-04-01T04:26:50;11.15;107.79
14154;DHT22;7157;53.144;7.570;2023-04-01T04:36:54;11.15;107.78
14154;DHT22;7157;53.144;7.570;2023-04-01T04:46:57;11.14;107.74
14154;DHT22;7157;53.144;7.570;2023-04-01T04:57:01;11.14;107.51
14154;DHT22;7157;53.144;7.570;2023-04-01T05:07:03;11.12;107.62
14154;DHT22;7157;53.144;7.570;2023-04-01T05:17:09;11.12;107.59
14154;DHT22;7157;53.144;7.570;2023-04-01T05:27:12;11.11;107.48
14154;DHT22;7157;53.144;7.570;2023-04-01T05:37:16;11.20;107.70
14154;DHT22;7157;53.144;7.570;2023-04-01T05:47:19;11.22;107.48
14154;DHT22;7157;53.144;7.570;2023-04-01T05:57:23;11.42;107.46
14154;DHT22;7157;53.144;7.570;2023-04-01T06:07:27;11.46;107.23
14154;DHT22;7157;53.144;7.570;2023-04-01T06:17:41;11.49;106.94
14154;DHT22;7157;53.144;7.570;2023-04-01T06:27:56;11.57;107.18
14154;DHT22;7157;53.144;7.570;2023-04-01T06:38:23;11.64;106.64
14154;DHT22;7157;53.144;7.570;2023-04-01T06:48:38;11.68;106.68
14154;DHT22;7157;53.144;7.570;2023-04-01T06:58:48;11.73;106.53
14154;DHT22;7157;53.144;7.570;2023-04-01T07:08:53;11.90;106.24
14154;DHT22;7157;53.144;7.570;2023-04-01T07:19:02;12.08;106.16
14154;DHT22;7157;53.144;7.570;2023-04-01T07:29:09;11.99;105.82
14154;DHT22;7157;53.144;7.570;2023-04-01T07:39:25;12.16;105.52
14154;DHT22;7157;53.144;7.570;2023-04-01T07:49:36;12.18;105.22
14154;DHT22;7157;53.144;7.570;2023-04-01T07:59:53;12.23;104.76
14154;DHT22;7157;53.144;7.570;2023-04-01T08:10:06;12.21;104.60
14154;DHT22;7157;53.144;7.570;2023-04-01T08:20:23;12.37;104.51
14154;DHT22;7157;53.144;7.570;2023-04-01T08:30:33;12.58;103.60
14154;DHT22;7157;53.144;7.570;2023-04-01T08:40:59;12.65;103.12
14154;DHT22;7157;53.144;7.570;2023-04-01T09:02:02;13.25;101.48
14154;DHT22;7157;53.144;7.570;2023-04-01T09:12:22;13.16;101.48
14154;DHT22;7157;53.144;7.570;2023-04-01T09:22:46;13.64;98.24
14154;DHT22;7157;53.144;7.570;2023-04-01T09:43:53;12.81;96.31
14154;DHT22;7157;53.144;7.570;2023-04-01T09:54:12;12.33;97.09
14154;DHT22;7157;53.144;7.570;2023-04-01T10:26:20;12.12;97.33
14154;DHT22;7157;53.144;7.570;2023-04-01T10:36:52;12.20;96.60
14154;DHT22;7157;53.144;7.570;2023-04-01T10:47:24;12.19;96.37
14154;DHT22;7157;53.144;7.570;2023-04-01T11:29:53;12.08;94.28
14154;DHT22;7157;53.144;7.570;2023-04-01T11:40:14;12.01;93.24
14154;DHT22;7157;53.144;7.570;2023-04-01T11:50:28;11.61;94.13
14154;DHT22;7157;53.144;7.570;2023-04-01T12:00:49;11.59;94.82
14154;DHT22;7157;53.144;7.570;2023-04-01T12:11:00;11.58;93.72
14154;DHT22;7157;53.144;7.570;2023-04-01T12:21:17;11.41;93.54
14154;DHT22;7157;53.144;7.570;2023-04-01T12:31:29;11.70;93.51
14154;DHT22;7157;53.144;7.570;2023-04-01T12:41:39;11.49;94.31
14154;DHT22;7157;53.144;7.570;2023-04-01T12:52:03;11.24;95.63
14154;DHT22;7157;53.144;7.570;2023-04-01T13:02:13;11.13;94.75
14154;DHT22;7157;53.144;7.570;2023-04-01T13:12:36;10.90;95.34
14154;DHT22;7157;53.144;7.570;2023-04-01T13:22:55;10.92;95.64
14154;DHT22;7157;53.144;7.570;2023-04-01T13:33:06;11.17;95.81
14154;DHT22;7157;53.144;7.570;2023-04-01T13:43:22;10.95;95.65
14154;DHT22;7157;53.144;7.570;2023-04-01T13:53:51;10.82;95.89
14154;DHT22;7157;53.144;7.570;2023-04-01T14:04:32;10.77;95.91
14154;DHT22;7157;53.144;7.570;2023-04-01T14:14:46;10.64;96.06
14154;DHT22;7157;53.144;7.570;2023-04-01T14:25:05;10.60;94.89
14154;DHT22;7157;53.144;7.570;2023-04-01T14:35:22;10.70;95.01
14154;DHT22;7157;53.144;7.570;2023-04-01T14:45:45;10.69;94.92
14154;DHT22;7157;53.144;7.570;2023-04-01T14:55:50;10.41;94.10
14154;DHT22;7157;53.144;7.570;2023-04-01T15:06:09;10.30;94.41
14154;DHT22;7157;53.144;7.570;2023-04-01T15:16:20;10.09;94.10
14154;DHT22;7157;53.144;7.570;2023-04-01T15:26:42;9.83;94.97
14154;DHT22;7157;53.144;7.570;2023-04-01T15:36:55;9.79;94.98
14154;DHT22;7157;53.144;7.570;2023-04-01T15:47:02;9.68;95.24
14154;DHT22;7157;53.144;7.570;2023-04-01T15:57:22;9.55;95.52
14154;DHT22;7157;53.144;7.570;2023-04-01T16:07:43;9.61;94.61
14154;DHT22;7157;53.144;7.570;2023-04-01T16:18:04;9.26;95.42
14154;DHT22;7157;53.144;7.570;2023-04-01T16:28:19;9.01;96.22
14154;DHT22;7157;53.144;7.570;2023-04-01T16:38:31;8.67;95.81
14154;DHT22;7157;53.144;7.570;2023-04-01T16:48:52;8.64;97.16
14154;DHT22;7157;53.144;7.570;2023-04-01T16:59:04;8.58;96.52
14154;DHT22;7157;53.144;7.570;2023-04-01T17:09:22;8.52;96.60
14154;DHT22;7157;53.144;7.570;2023-04-01T17:19:37;8.29;96.26
14154;DHT22;7157;53.144;7.570;2023-04-01T17:29:59;8.27;96.94
14154;DHT22;7157;53.144;7.570;2023-04-01T17:40:16;8.24;97.20
14154;DHT22;7157;53.144;7.570;2023-04-01T17:50:29;8.30;96.19
14154;DHT22;7157;53.144;7.570;2023-04-01T18:00:39;8.22;96.04
14154;DHT22;7157;53.144;7.570;2023-04-01T18:11:05;8.05;96.20
14154;DHT22;7157;53.144;7.570;2023-04-01T18:21:18;8.03;95.73
14154;DHT22;7157;53.144;7.570;2023-04-01T18:31:32;8.02;95.01
14154;DHT22;7157;53.144;7.570;2023-04-01T18:41:47;7.68;95.60
14154;DHT22;7157;53.144;7.570;2023-04-01T18:51:56;7.85;95.12
14154;DHT22;7157;53.144;7.570;2023-04-01T19:02:02;7.76;94.08
14154;DHT22;7157;53.144;7.570;2023-04-01T19:12:26;7.54;94.37
14154;DHT22;7157;53.144;7.570;2023-04-01T19:22:48;7.35;94.91
14154;DHT22;7157;53.144;7.570;2023-04-01T19:33:00;7.37;94.56
14154;DHT22;7157;53.144;7.570;2023-04-01T19:43:13;7.54;93.56
14154;DHT22;7157;53.144;7.570;2023-04-01T19:53:19;7.14;94.42
14154;DHT22;7157;53.144;7.570;2023-04-01T20:03:40;6.96;94.91
14154;DHT22;7157;53.144;7.570;2023-04-01T20:13:53;7.07;94.11
14154;DHT22;7157;53.144;7.570;2023-04-01T20:24:02;6.99;94.26
14154;DHT22;7157;53.144;7.570;2023-04-01T20:34:17;6.85;94.39
14154;DHT22;7157;53.144;7.570;2023-04-01T20:44:27;6.82;92.92
14154;DHT22;7157;53.144;7.570;2023-04-01T20:54:44;6.73;93.22
14154;DHT22;7157;53.144;7.570;2023-04-01T21:05:11;6.74;92.22
14154;DHT22;7157;53.144;7.570;2023-04-01T21:15:37;6.63;92.46
14154;DHT22;7157;53.144;7.570;2023-04-01T21:25:55;6.46;92.54
14154;DHT22;7157;53.144;7.570;2023-04-01T21:36:09;6.43;92.27
14154;DHT22;7157;53.144;7.570;2023-04-01T21:57:31;6.12;90.23
14154;DHT22;7157;53.144;7.570;2023-04-01T22:07:48;6.08;88.87
14154;DHT22;7157;53.144;7.570;2023-04-01T22:17:58;6.02;88.92
14154;DHT22;7157;53.144;7.570;2023-04-01T22:28:09;6.00;87.61
14154;DHT22;7157;53.144;7.570;2023-04-01T22:38:26;5.84;88.78
14154;DHT22;7157;53.144;7.570;2023-04-01T22:48:37;5.90;88.46
14154;DHT22;7157;53.144;7.570;2023-04-01T22:58:48;5.77;88.33
14154;DHT22;7157;53.144;7.570;2023-04-01T23:09:01;5.74;88.50
14154;DHT22;7157;53.144;7.570;2023-04-01T23:19:12;5.56;87.08
14154;DHT22;7157;53.144;7.570;2023-04-01T23:29:17;5.16;87.73
14154;DHT22;7157;53.144;7.570;2023-04-01T23:39:24;4.87;87.22
14154;DHT22;7157;53.144;7.570;2023-04-01T23:49:30;4.63;88.51
14154;DHT22;7157;53.144;7.570;2023-04-01T23:59:37;4.33;89.35
